createdAt,value
2023-01-21T00:01:14.415Z,17.60
2023-01-21T00:04:00.887Z,17.30
2023-01-21T00:06:47.673Z,16.00
2023-01-21T00:09:34.671Z,16.80
2023-01-21T00:12:21.220Z,16.00
2023-01-21T00:15:08.070Z,14.80
2023-01-21T00:17:55.010Z,15.80
2023-01-21T00:20:41.654Z,13.00
2023-01-21T00:23:28.736Z,12.80
2023-01-21T00:26:15.438Z,12.20
2023-01-21T00:29:04.955Z,11.60
2023-01-21T00:31:51.466Z,11.20
2023-01-21T00:34:38.309Z,12.10
2023-01-21T00:37:24.989Z,12.10
2023-01-21T00:40:12.267Z,11.50
2023-01-21T00:43:12.860Z,10.60
2023-01-21T00:46:07.917Z,10.60
2023-01-21T00:48:56.111Z,10.40
2023-01-21T00:51:42.790Z,10.10
2023-01-21T00:54:35.028Z,9.90
2023-01-21T00:57:21.788Z,9.80
2023-01-21T01:00:11.152Z,9.40
2023-01-21T01:02:58.115Z,9.20
2023-01-21T01:05:44.750Z,9.00
2023-01-21T01:08:31.512Z,9.00
2023-01-21T01:11:21.622Z,9.00
2023-01-21T01:14:08.151Z,8.70
2023-01-21T01:16:54.827Z,7.90
2023-01-21T01:19:41.713Z,7.50
2023-01-21T01:22:28.417Z,8.40
2023-01-21T01:25:15.164Z,8.60
2023-01-21T01:28:01.763Z,8.00
2023-01-21T01:30:48.579Z,8.50
2023-01-21T01:33:35.373Z,8.40
2023-01-21T01:36:25.605Z,8.40
2023-01-21T01:39:12.096Z,8.20
2023-01-21T01:41:59.424Z,8.80
2023-01-21T01:45:02.566Z,8.20
2023-01-21T01:47:58.301Z,9.00
2023-01-21T01:50:46.946Z,8.40
2023-01-21T01:53:35.665Z,8.90
2023-01-21T01:56:22.608Z,9.60
2023-01-21T01:59:09.205Z,9.70
2023-01-21T02:01:58.612Z,9.40
2023-01-21T02:04:53.010Z,9.20
2023-01-21T02:07:42.440Z,9.10
2023-01-21T02:10:30.060Z,8.50
2023-01-21T02:13:17.057Z,9.60
2023-01-21T02:16:10.696Z,9.70
2023-01-21T02:19:28.706Z,11.00
2023-01-21T02:22:44.051Z,9.50
2023-01-21T02:25:42.677Z,11.10
2023-01-21T02:28:51.979Z,9.20
2023-01-21T02:31:53.672Z,10.10
2023-01-21T02:34:46.276Z,9.80
2023-01-21T02:37:57.448Z,10.00
2023-01-21T02:40:50.746Z,9.80
2023-01-21T02:43:54.149Z,10.10
2023-01-21T02:46:49.883Z,8.70
2023-01-21T02:49:42.274Z,9.20
2023-01-21T02:52:29.148Z,8.50
2023-01-21T02:55:17.052Z,9.10
2023-01-21T02:58:12.107Z,10.00
2023-01-21T03:01:14.237Z,8.50
2023-01-21T03:04:25.758Z,8.70
2023-01-21T03:07:31.599Z,8.30
2023-01-21T03:10:26.759Z,9.20
2023-01-21T03:13:47.453Z,7.80
2023-01-21T03:16:56.581Z,8.50
2023-01-21T03:19:57.025Z,7.90
2023-01-21T03:22:45.072Z,8.00
2023-01-21T03:25:34.439Z,8.40
2023-01-21T03:28:24.653Z,8.80
2023-01-21T03:31:33.171Z,7.90
2023-01-21T03:34:22.447Z,7.40
2023-01-21T03:37:30.530Z,7.50
2023-01-21T03:40:23.922Z,7.60
2023-01-21T03:43:11.184Z,7.40
2023-01-21T03:46:07.172Z,7.10
2023-01-21T03:49:03.276Z,7.00
2023-01-21T03:51:54.029Z,6.80
2023-01-21T03:54:41.282Z,6.30
2023-01-21T03:57:28.097Z,6.30
2023-01-21T04:00:16.250Z,6.10
2023-01-21T04:03:03.687Z,5.80
2023-01-21T04:05:50.327Z,6.00
2023-01-21T04:08:36.983Z,6.20
2023-01-21T04:11:23.683Z,6.20
2023-01-21T04:14:10.536Z,5.40
2023-01-21T04:16:57.723Z,5.10
2023-01-21T04:19:44.456Z,5.00
2023-01-21T04:22:31.293Z,5.00
2023-01-21T04:25:17.999Z,4.20
2023-01-21T04:28:04.834Z,5.10
2023-01-21T04:30:51.528Z,4.20
2023-01-21T04:33:38.523Z,3.80
2023-01-21T04:36:24.773Z,3.90
2023-01-21T04:39:11.505Z,4.40
2023-01-21T04:41:58.145Z,3.90
2023-01-21T04:44:45.043Z,4.40
2023-01-21T04:47:31.613Z,3.40
2023-01-21T04:50:18.873Z,3.10
2023-01-21T04:53:05.852Z,3.40
2023-01-21T04:55:52.743Z,3.10
2023-01-21T04:58:39.444Z,3.50
2023-01-21T05:01:26.111Z,4.50
2023-01-21T05:04:12.896Z,3.70
2023-01-21T05:06:59.685Z,3.00
2023-01-21T05:09:46.352Z,2.60
2023-01-21T05:12:33.144Z,2.80
2023-01-21T05:15:20.163Z,2.80
2023-01-21T05:18:06.516Z,2.70
2023-01-21T05:20:53.526Z,3.90
2023-01-21T05:23:40.265Z,2.80
2023-01-21T05:26:26.779Z,3.00
2023-01-21T05:29:13.462Z,2.40
2023-01-21T05:32:00.231Z,2.70
2023-01-21T05:34:46.940Z,2.60
2023-01-21T05:37:33.184Z,2.80
2023-01-21T05:40:20.383Z,2.30
2023-01-21T05:43:07.075Z,2.50
2023-01-21T05:45:54.271Z,2.30
2023-01-21T05:48:40.873Z,2.10
2023-01-21T05:51:27.063Z,1.90
2023-01-21T05:54:14.892Z,2.00
2023-01-21T05:57:01.533Z,2.70
2023-01-21T05:59:49.409Z,1.80
2023-01-21T06:02:36.073Z,1.90
2023-01-21T06:05:22.666Z,1.80
2023-01-21T06:08:10.408Z,1.70
2023-01-21T06:10:56.749Z,1.60
2023-01-21T06:13:43.884Z,1.50
2023-01-21T06:16:30.235Z,2.00
2023-01-21T06:19:16.784Z,1.70
2023-01-21T06:22:04.017Z,1.60
2023-01-21T06:24:50.865Z,1.70
2023-01-21T06:27:38.423Z,2.10
2023-01-21T06:30:26.216Z,2.20
2023-01-21T06:33:14.794Z,2.30
2023-01-21T06:36:01.747Z,1.70
2023-01-21T06:38:48.142Z,2.00
2023-01-21T06:41:34.975Z,1.90
2023-01-21T06:44:23.779Z,2.40
2023-01-21T06:47:10.288Z,2.20
2023-01-21T06:50:00.163Z,3.60
2023-01-21T06:52:48.426Z,2.10
2023-01-21T06:55:35.335Z,1.90
2023-01-21T06:58:24.313Z,1.90
2023-01-21T07:01:10.647Z,2.20
2023-01-21T07:09:11.895Z,2.60
2023-01-21T07:11:58.713Z,3.60
2023-01-21T07:14:51.132Z,2.70
2023-01-21T07:17:38.064Z,2.40
2023-01-21T07:20:24.483Z,2.10
2023-01-21T07:23:11.202Z,3.90
2023-01-21T07:25:58.013Z,2.90
2023-01-21T07:28:44.906Z,4.00
2023-01-21T07:31:31.983Z,2.90
2023-01-21T07:34:18.809Z,2.70
2023-01-21T07:37:05.341Z,2.40
2023-01-21T07:39:54.462Z,3.00
2023-01-21T07:42:44.109Z,3.00
2023-01-21T07:45:30.705Z,2.80
2023-01-21T07:48:17.689Z,2.50
2023-01-21T07:51:05.658Z,2.70
2023-01-21T07:53:58.150Z,2.60
2023-01-21T07:56:45.956Z,2.80
2023-01-21T07:59:32.402Z,2.40
2023-01-21T08:02:20.352Z,2.60
2023-01-21T08:05:07.774Z,2.80
2023-01-21T08:07:58.084Z,3.10
2023-01-21T08:10:51.441Z,2.30
2023-01-21T08:13:37.673Z,2.60
2023-01-21T08:16:24.557Z,3.40
2023-01-21T08:19:13.757Z,2.60
2023-01-21T08:22:00.773Z,3.00
2023-01-21T08:24:47.295Z,3.00
2023-01-21T08:27:36.477Z,3.00
2023-01-21T08:30:23.160Z,4.00
2023-01-21T08:33:13.316Z,3.70
2023-01-21T08:36:03.807Z,4.90
2023-01-21T08:39:02.074Z,4.10
2023-01-21T08:41:49.581Z,4.70
2023-01-21T08:44:36.084Z,4.50
2023-01-21T08:47:22.932Z,4.40
2023-01-21T08:50:10.343Z,4.30
2023-01-21T08:52:57.260Z,4.70
2023-01-21T08:55:44.031Z,5.20
2023-01-21T08:58:31.943Z,5.20
2023-01-21T09:01:18.593Z,5.70
2023-01-21T09:04:05.218Z,4.30
2023-01-21T09:06:51.895Z,4.20
2023-01-21T09:09:38.709Z,4.70
2023-01-21T09:12:25.257Z,4.70
2023-01-21T09:15:18.549Z,5.60
2023-01-21T09:18:12.332Z,4.20
2023-01-21T09:21:03.704Z,5.10
2023-01-21T09:23:50.588Z,5.70
2023-01-21T09:26:37.505Z,4.40
2023-01-21T09:29:30.150Z,4.60
2023-01-21T09:32:17.602Z,4.60
2023-01-21T09:35:04.827Z,4.40
2023-01-21T09:37:51.488Z,5.60
2023-01-21T09:40:44.013Z,6.80
2023-01-21T09:43:46.482Z,4.90
2023-01-21T09:47:03.969Z,5.40
2023-01-21T09:49:56.017Z,4.60
2023-01-21T09:52:52.258Z,5.30
2023-01-21T09:55:47.685Z,5.50
2023-01-21T09:58:41.691Z,5.40
2023-01-21T10:01:37.458Z,5.70
2023-01-21T10:04:35.706Z,6.20
2023-01-21T10:07:38.991Z,5.00
2023-01-21T10:11:01.978Z,4.90
2023-01-21T10:14:19.505Z,4.40
2023-01-21T10:17:29.571Z,4.60
2023-01-21T10:20:23.991Z,4.60
2023-01-21T10:23:19.209Z,5.30
2023-01-21T10:26:09.765Z,6.30
2023-01-21T10:28:56.421Z,5.40
2023-01-21T10:31:51.190Z,6.00
2023-01-21T10:34:44.232Z,7.10
2023-01-21T10:38:01.309Z,5.70
2023-01-21T10:40:56.977Z,7.40
2023-01-21T10:44:24.356Z,5.60
2023-01-21T10:47:31.972Z,6.30
2023-01-21T10:50:34.578Z,7.40
2023-01-21T10:53:24.445Z,6.70
2023-01-21T10:56:18.878Z,6.70
2023-01-21T10:59:19.235Z,17.20
2023-01-21T11:02:08.781Z,9.10
2023-01-21T11:04:58.299Z,9.60
2023-01-21T11:07:46.899Z,9.60
2023-01-21T11:10:33.692Z,8.90
2023-01-21T11:20:28.277Z,11.10
2023-01-21T11:23:31.006Z,10.70
2023-01-21T11:26:23.549Z,12.20
2023-01-21T11:29:14.508Z,12.40
2023-01-21T11:32:28.322Z,13.80
2023-01-21T11:35:21.788Z,13.20
2023-01-21T11:38:41.967Z,17.20
2023-01-21T11:41:29.014Z,13.90
2023-01-21T11:44:21.324Z,13.50
2023-01-21T11:47:46.430Z,15.70
2023-01-21T11:50:38.547Z,14.50
2023-01-21T11:53:26.132Z,17.20
2023-01-21T11:56:15.899Z,17.80
2023-01-21T11:59:14.023Z,15.20
2023-01-21T12:02:05.546Z,16.10
2023-01-21T12:05:10.242Z,16.60
2023-01-21T12:07:57.601Z,15.90
2023-01-21T12:10:48.783Z,19.50
2023-01-21T12:13:39.497Z,16.40
2023-01-21T12:16:29.168Z,19.10
2023-01-21T12:20:00.962Z,21.30
2023-01-21T12:23:13.062Z,17.90
2023-01-21T12:26:36.952Z,20.40
2023-01-21T12:29:45.098Z,23.70
2023-01-21T12:32:39.212Z,20.30
2023-01-21T12:35:46.813Z,20.00
2023-01-21T12:38:41.421Z,21.00
2023-01-21T12:41:32.372Z,19.10
2023-01-21T12:44:28.219Z,19.50
2023-01-21T12:47:32.505Z,23.00
2023-01-21T12:50:22.778Z,21.00
2023-01-21T12:53:23.920Z,22.50
2023-01-21T12:56:28.756Z,20.90
2023-01-21T12:59:33.325Z,22.40
2023-01-21T13:02:29.166Z,22.20
2023-01-21T13:05:44.217Z,23.70
2023-01-21T13:09:12.539Z,23.30
2023-01-21T13:12:11.496Z,20.60
2023-01-21T13:15:13.261Z,21.60
2023-01-21T13:18:04.561Z,20.10
2023-01-21T13:20:56.113Z,20.60
2023-01-21T13:23:50.942Z,22.70
2023-01-21T13:26:59.486Z,23.20
2023-01-21T13:29:51.744Z,23.80
2023-01-21T13:32:53.237Z,26.10
2023-01-21T13:35:58.431Z,25.40
2023-01-21T13:39:30.507Z,24.70
2023-01-21T13:42:41.130Z,25.50
2023-01-21T13:45:47.239Z,25.40
2023-01-21T13:48:51.735Z,29.70
2023-01-21T13:52:00.955Z,28.70
2023-01-21T13:55:00.542Z,28.20
2023-01-21T13:57:55.986Z,30.00
2023-01-21T14:00:50.663Z,29.10
2023-01-21T14:03:45.437Z,31.70
2023-01-21T14:06:42.569Z,31.30
2023-01-21T14:09:37.066Z,29.20
2023-01-21T14:12:41.974Z,28.80
2023-01-21T14:15:40.411Z,31.20
2023-01-21T14:18:51.909Z,29.30
2023-01-21T14:21:57.202Z,28.40
2023-01-21T14:25:21.214Z,32.10
2023-01-21T14:28:07.757Z,32.30
2023-01-21T14:31:12.698Z,29.80
2023-01-21T14:34:25.693Z,30.40
2023-01-21T14:37:17.678Z,32.90
2023-01-21T14:40:28.462Z,33.40
2023-01-21T14:43:36.637Z,33.90
2023-01-21T14:46:33.992Z,29.30
2023-01-21T14:49:39.557Z,34.30
2023-01-21T14:52:33.502Z,33.60
2023-01-21T14:55:32.741Z,36.30
2023-01-21T14:58:23.699Z,32.90
2023-01-21T15:01:45.073Z,39.00
2023-01-21T15:04:40.032Z,36.50
2023-01-21T15:07:38.486Z,36.40
2023-01-21T15:10:33.918Z,35.60
2023-01-21T15:13:32.616Z,37.00
2023-01-21T15:16:39.125Z,37.70
2023-01-21T15:19:32.835Z,39.60
2023-01-21T15:22:39.895Z,39.60
2023-01-21T15:25:36.910Z,41.00
2023-01-21T15:28:34.897Z,47.30
2023-01-21T15:31:24.562Z,41.90
2023-01-21T15:34:15.505Z,46.20
2023-01-21T15:37:02.323Z,45.40
2023-01-21T15:39:56.856Z,51.20
2023-01-21T15:43:12.592Z,51.40
2023-01-21T15:46:31.254Z,46.80
2023-01-21T15:49:42.107Z,46.00
2023-01-21T15:52:49.789Z,51.80
2023-01-21T15:56:10.529Z,53.10
2023-01-21T15:59:12.164Z,53.50
2023-01-21T16:02:11.313Z,60.80
2023-01-21T16:05:29.153Z,51.30
2023-01-21T16:09:04.614Z,56.30
2023-01-21T16:12:17.082Z,52.20
2023-01-21T16:15:19.085Z,55.60
2023-01-21T16:18:18.466Z,57.10
2023-01-21T16:21:05.353Z,58.00
2023-01-21T16:23:57.715Z,56.60
2023-01-21T16:26:44.251Z,59.80
2023-01-21T16:29:38.423Z,53.50
2023-01-21T16:32:27.019Z,50.50
2023-01-21T16:35:13.985Z,50.10
2023-01-21T16:38:00.572Z,50.90
2023-01-21T16:41:11.557Z,49.60
2023-01-21T16:44:05.803Z,51.30
2023-01-21T16:46:53.108Z,52.20
2023-01-21T16:49:43.289Z,59.10
2023-01-21T16:52:30.599Z,54.20
2023-01-21T16:55:28.764Z,53.60
2023-01-21T16:58:32.755Z,55.60
2023-01-21T17:01:20.986Z,55.10
2023-01-21T17:04:09.220Z,61.20
2023-01-21T17:06:56.241Z,56.60
2023-01-21T17:09:43.476Z,62.70
2023-01-21T17:12:33.629Z,57.00
2023-01-21T17:15:38.583Z,60.20
2023-01-21T17:18:46.123Z,64.70
2023-01-21T17:21:38.725Z,60.80
2023-01-21T17:24:30.865Z,65.40
2023-01-21T17:27:20.454Z,65.70
2023-01-21T17:30:31.817Z,61.30
2023-01-21T17:33:30.702Z,65.10
2023-01-21T17:36:31.395Z,63.50
2023-01-21T17:40:00.894Z,62.90
2023-01-21T17:42:48.738Z,63.20
2023-01-21T17:45:38.387Z,61.00
2023-01-21T17:48:31.242Z,62.20
2023-01-21T17:51:57.407Z,62.90
2023-01-21T17:54:51.081Z,62.80
2023-01-21T17:57:38.162Z,64.20
2023-01-21T18:00:43.249Z,65.20
2023-01-21T18:03:30.814Z,64.60
2023-01-21T18:06:24.350Z,62.90
2023-01-21T18:09:15.444Z,61.50
2023-01-21T18:12:37.991Z,48.30
2023-01-21T18:15:24.192Z,62.60
2023-01-21T18:18:17.036Z,61.10
2023-01-21T18:21:02.645Z,66.70
2023-01-21T18:23:48.725Z,69.70
2023-01-21T18:26:35.146Z,65.70
2023-01-21T18:29:21.198Z,64.20
2023-01-21T18:32:13.783Z,72.00
2023-01-21T18:34:59.245Z,66.80
2023-01-21T18:37:45.248Z,67.60
2023-01-21T18:40:30.428Z,69.40
2023-01-21T18:43:15.704Z,74.70
2023-01-21T18:46:00.511Z,70.10
2023-01-21T18:48:48.218Z,73.10
2023-01-21T18:51:33.472Z,77.30
2023-01-21T18:54:19.854Z,81.20
2023-01-21T18:57:09.589Z,77.60
2023-01-21T18:59:54.858Z,91.00
2023-01-21T19:02:39.999Z,69.70
2023-01-21T19:09:21.824Z,49.40
2023-01-21T19:12:12.437Z,68.10
2023-01-21T19:14:59.760Z,75.70
2023-01-21T19:17:47.225Z,81.50
2023-01-21T19:20:34.946Z,77.90
2023-01-21T19:23:21.693Z,72.10
2023-01-21T19:26:13.121Z,79.60
2023-01-21T19:29:00.150Z,77.90
2023-01-21T19:31:49.126Z,73.40
2023-01-21T19:34:36.188Z,72.40
2023-01-21T19:37:24.844Z,76.70
2023-01-21T19:40:30.212Z,72.50
2023-01-21T19:43:22.095Z,76.10
2023-01-21T19:46:12.423Z,72.70
2023-01-21T19:49:16.575Z,69.70
2023-01-21T19:55:45.352Z,74.40
2023-01-21T19:58:34.081Z,76.20
2023-01-21T20:01:20.840Z,78.30
2023-01-21T20:04:08.921Z,82.10
2023-01-21T20:06:56.640Z,86.60
2023-01-21T20:09:46.602Z,85.50
2023-01-21T20:12:33.409Z,77.70
2023-01-21T20:15:30.411Z,82.20
2023-01-21T20:18:19.283Z,84.70
2023-01-21T20:21:06.241Z,83.30
2023-01-21T20:23:53.260Z,91.10
2023-01-21T20:26:45.208Z,83.30
2023-01-21T20:29:32.006Z,91.60
2023-01-21T20:32:19.393Z,98.10
2023-01-21T20:35:06.861Z,90.50
2023-01-21T20:37:55.595Z,93.90
2023-01-21T20:40:42.178Z,105.70
2023-01-21T20:43:29.298Z,92.40
2023-01-21T20:46:29.931Z,88.80
2023-01-21T20:49:16.558Z,99.00
2023-01-21T20:52:03.626Z,93.30
2023-01-21T20:54:50.493Z,93.90
2023-01-21T20:57:37.077Z,97.60
2023-01-21T21:00:31.528Z,98.30
2023-01-21T21:03:18.591Z,99.10
2023-01-21T21:06:12.579Z,101.70
2023-01-21T21:08:59.167Z,95.40
2023-01-21T21:11:45.886Z,93.10
2023-01-21T21:14:32.843Z,95.40
2023-01-21T21:17:19.434Z,86.90
2023-01-21T21:20:07.457Z,80.60
2023-01-21T21:22:53.826Z,95.30
2023-01-21T21:25:47.318Z,90.50
2023-01-21T21:28:34.000Z,104.60
2023-01-21T21:31:21.531Z,103.30
2023-01-21T21:34:09.879Z,88.50
2023-01-21T21:36:56.546Z,83.50
2023-01-21T21:39:43.224Z,83.70
2023-01-21T21:42:48.318Z,84.70
2023-01-21T21:45:36.443Z,87.20
2023-01-21T21:48:39.752Z,83.00
2023-01-21T21:51:26.910Z,90.50
2023-01-21T21:54:15.365Z,85.00
2023-01-21T21:57:01.745Z,75.50
2023-01-21T21:59:48.358Z,80.10
2023-01-21T22:02:35.176Z,80.30
2023-01-21T22:05:21.924Z,82.70
2023-01-21T22:08:09.296Z,81.90
2023-01-21T22:10:56.589Z,84.80
2023-01-21T22:13:43.947Z,88.40
2023-01-21T22:16:31.575Z,88.40
2023-01-21T22:19:18.461Z,97.30
2023-01-21T22:22:05.234Z,87.90
2023-01-21T22:24:54.460Z,89.70
2023-01-21T22:27:41.503Z,85.70
2023-01-21T22:30:42.582Z,79.90
2023-01-21T22:33:30.437Z,86.10
2023-01-21T22:36:20.508Z,88.00
2023-01-21T22:39:07.122Z,84.90
2023-01-21T22:42:00.143Z,88.60
2023-01-21T22:44:47.150Z,87.40
2023-01-21T22:47:34.977Z,90.50
2023-01-21T22:50:21.627Z,97.70
2023-01-21T22:53:08.967Z,92.00
2023-01-21T22:55:58.173Z,90.60
2023-01-21T22:58:44.955Z,92.60
2023-01-21T23:01:31.741Z,100.30
2023-01-21T23:04:21.312Z,97.50
2023-01-21T23:07:07.686Z,94.00
2023-01-21T23:09:54.817Z,99.60
2023-01-21T23:12:41.718Z,94.20
2023-01-21T23:15:28.492Z,104.30
2023-01-21T23:18:15.459Z,111.60
2023-01-21T23:21:07.264Z,113.40
2023-01-21T23:23:54.033Z,112.90
2023-01-21T23:26:40.943Z,98.80
2023-01-21T23:29:27.589Z,106.90
2023-01-21T23:32:14.566Z,103.40
2023-01-21T23:35:00.976Z,102.50
2023-01-21T23:37:47.723Z,102.00
2023-01-21T23:40:34.599Z,108.10
2023-01-21T23:43:26.095Z,106.40
2023-01-21T23:46:16.480Z,89.90
2023-01-21T23:49:02.980Z,108.70
2023-01-21T23:51:51.242Z,105.90
2023-01-21T23:54:43.656Z,98.60
2023-01-21T23:57:30.482Z,98.10
